createdAt,value
2018-04-15T00:00:09.686Z,14.00
2018-04-15T00:02:38.784Z,14.00
2018-04-15T00:05:07.840Z,13.90
2018-04-15T00:07:36.170Z,13.90
2018-04-15T00:10:05.208Z,13.80
2018-04-15T00:12:33.523Z,13.80
2018-04-15T00:15:01.819Z,13.80
2018-04-15T00:17:30.891Z,13.60
2018-04-15T00:19:59.176Z,13.70
2018-04-15T00:22:27.504Z,13.70
2018-04-15T00:24:55.793Z,13.60
2018-04-15T00:27:24.119Z,13.60
2018-04-15T00:29:53.167Z,13.50
2018-04-15T00:32:21.476Z,13.50
2018-04-15T00:34:49.760Z,13.60
2018-04-15T00:37:18.068Z,13.60
2018-04-15T00:39:46.354Z,13.70
2018-04-15T00:42:14.664Z,13.60
2018-04-15T00:44:42.952Z,13.50
2018-04-15T00:47:11.252Z,13.50
2018-04-15T00:49:40.319Z,13.30
2018-04-15T00:52:08.624Z,13.30
2018-04-15T00:54:37.684Z,13.40
2018-04-15T00:57:06.005Z,13.40
2018-04-15T00:59:35.089Z,13.40
2018-04-15T01:02:04.137Z,13.50
2018-04-15T01:04:32.469Z,13.50
2018-04-15T01:07:01.521Z,13.40
2018-04-15T01:09:29.832Z,13.40
2018-04-15T01:11:58.896Z,13.10
2018-04-15T01:17:02.526Z,12.90
2018-04-15T01:19:30.831Z,12.90
2018-04-15T01:21:59.883Z,12.80
2018-04-15T01:24:28.200Z,12.80
2018-04-15T01:26:57.275Z,12.80
2018-04-15T01:29:25.602Z,12.80
2018-04-15T01:31:53.881Z,12.70
2018-04-15T01:34:22.213Z,12.70
2018-04-15T01:36:50.504Z,12.60
2018-04-15T01:39:18.812Z,12.60
2018-04-15T01:41:47.165Z,12.60
2018-04-15T01:44:15.437Z,12.60
2018-04-15T01:46:43.752Z,12.60
2018-04-15T01:49:12.517Z,12.60
2018-04-15T01:51:40.842Z,12.60
2018-04-15T01:54:09.132Z,12.50
2018-04-15T01:56:37.465Z,12.60
2018-04-15T01:59:05.759Z,12.50
2018-04-15T02:01:34.072Z,12.60
2018-04-15T02:04:07.967Z,12.60
2018-04-15T02:06:36.281Z,12.70
2018-04-15T02:09:06.092Z,12.90
2018-04-15T02:11:34.423Z,12.90
2018-04-15T02:14:02.721Z,13.00
2018-04-15T02:16:31.037Z,13.10
2018-04-15T02:18:59.325Z,13.10
2018-04-15T02:21:27.641Z,13.20
2018-04-15T02:23:55.916Z,13.20
2018-04-15T02:26:24.255Z,13.20
2018-04-15T02:28:53.288Z,13.20
2018-04-15T02:31:22.380Z,13.20
2018-04-15T02:33:50.710Z,13.20
2018-04-15T02:36:19.784Z,13.20
2018-04-15T02:38:48.070Z,13.20
2018-04-15T02:41:16.392Z,13.20
2018-04-15T02:43:44.693Z,13.20
2018-04-15T02:46:13.010Z,13.20
2018-04-15T02:48:41.301Z,13.20
2018-04-15T02:51:09.624Z,13.20
2018-04-15T02:53:37.904Z,13.20
2018-04-15T02:56:06.216Z,13.20
2018-04-15T02:58:34.596Z,13.20
2018-04-15T03:01:02.840Z,13.20
2018-04-15T03:03:31.153Z,13.20
2018-04-15T03:06:00.331Z,13.30
2018-04-15T03:08:28.672Z,13.20
2018-04-15T03:10:56.974Z,13.30
2018-04-15T03:13:25.348Z,13.30
2018-04-15T03:15:53.721Z,13.30
2018-04-15T03:18:22.097Z,13.30
2018-04-15T03:20:50.424Z,13.30
2018-04-15T03:23:19.544Z,13.20
2018-04-15T03:25:47.901Z,13.20
2018-04-15T03:28:17.024Z,13.20
2018-04-15T03:30:45.417Z,13.10
2018-04-15T03:33:13.799Z,13.10
2018-04-15T03:35:42.168Z,13.20
2018-04-15T03:38:10.564Z,13.10
2018-04-15T03:40:38.968Z,12.90
2018-04-15T03:43:08.072Z,12.60
2018-04-15T03:45:36.352Z,12.60
2018-04-15T03:48:04.664Z,12.50
2018-04-15T03:50:32.945Z,12.40
2018-04-15T03:53:01.266Z,12.50
2018-04-15T03:55:29.548Z,12.50
2018-04-15T03:57:57.849Z,12.60
2018-04-15T04:00:26.933Z,12.60
2018-04-15T04:02:55.207Z,12.60
2018-04-15T04:05:23.543Z,12.60
2018-04-15T04:07:51.844Z,12.60
2018-04-15T04:10:20.159Z,12.70
2018-04-15T04:12:49.199Z,12.60
2018-04-15T04:15:17.519Z,12.60
2018-04-15T04:17:57.528Z,12.70
2018-04-15T04:20:37.808Z,12.70
2018-04-15T04:23:18.101Z,12.80
2018-04-15T04:26:03.816Z,12.50
2018-04-15T04:28:32.150Z,12.50
2018-04-15T04:31:00.498Z,12.40
2018-04-15T04:33:28.826Z,12.40
2018-04-15T04:35:57.258Z,12.30
2018-04-15T04:38:25.568Z,12.30
2018-04-15T04:40:54.715Z,12.20
2018-04-15T04:43:23.060Z,12.20
2018-04-15T04:45:52.182Z,12.10
2018-04-15T04:48:20.509Z,12.10
2018-04-15T04:50:48.821Z,12.10
2018-04-15T04:53:17.117Z,12.10
2018-04-15T04:55:45.433Z,12.20
2018-04-15T04:58:13.739Z,12.30
2018-04-15T05:00:42.817Z,12.40
2018-04-15T05:03:11.100Z,12.40
2018-04-15T05:05:39.414Z,12.50
2018-04-15T05:08:07.746Z,12.60
2018-04-15T05:10:36.052Z,12.60
2018-04-15T05:13:04.345Z,12.60
2018-04-15T05:15:32.639Z,12.70
2018-04-15T05:18:00.955Z,12.70
2018-04-15T05:20:29.261Z,12.70
2018-04-15T05:22:57.568Z,12.80
2018-04-15T05:25:25.844Z,12.80
2018-04-15T05:27:54.164Z,12.80
2018-04-15T05:30:22.458Z,12.70
2018-04-15T05:32:51.542Z,12.70
2018-04-15T05:35:19.829Z,12.70
2018-04-15T05:37:48.920Z,12.60
2018-04-15T05:40:18.005Z,12.60
2018-04-15T05:42:46.365Z,12.60
2018-04-15T05:45:14.685Z,12.60
2018-04-15T05:47:43.825Z,12.70
2018-04-15T05:50:12.176Z,12.70
2018-04-15T05:52:40.496Z,12.70
2018-04-15T05:55:08.778Z,12.70
2018-04-15T05:57:37.101Z,12.70
2018-04-15T06:00:05.392Z,12.70
2018-04-15T06:02:33.711Z,12.80
2018-04-15T06:05:02.843Z,12.90
2018-04-15T06:07:32.005Z,13.00
2018-04-15T06:10:01.145Z,13.00
2018-04-15T06:12:29.537Z,13.00
2018-04-15T06:14:57.852Z,13.10
2018-04-15T06:17:26.227Z,13.10
2018-04-15T06:19:54.511Z,13.10
2018-04-15T06:22:22.841Z,13.10
2018-04-15T06:24:51.595Z,13.10
2018-04-15T06:27:20.074Z,13.10
2018-04-15T06:29:49.829Z,13.20
2018-04-15T06:32:21.110Z,13.20
2018-04-15T06:37:40.456Z,13.30
2018-04-15T06:40:08.864Z,13.30
2018-04-15T06:42:37.184Z,13.30
2018-04-15T06:45:05.489Z,13.40
2018-04-15T06:47:33.788Z,13.40
2018-04-15T06:50:02.137Z,13.40
2018-04-15T06:52:31.186Z,13.60
2018-04-15T06:54:59.530Z,13.60
2018-04-15T06:57:27.833Z,13.70
2018-04-15T06:59:56.224Z,13.80
2018-04-15T07:02:24.619Z,13.80
2018-04-15T07:04:52.989Z,13.90
2018-04-15T07:07:21.358Z,13.90
2018-04-15T07:09:49.713Z,13.90
2018-04-15T07:12:18.084Z,14.00
2018-04-15T07:14:46.433Z,14.00
2018-04-15T07:17:15.515Z,14.10
2018-04-15T07:19:44.708Z,14.10
2018-04-15T07:22:13.810Z,14.10
2018-04-15T07:24:42.266Z,14.00
2018-04-15T07:27:10.584Z,14.10
2018-04-15T07:29:39.668Z,14.00
2018-04-15T07:32:10.458Z,14.00
2018-04-15T07:34:38.895Z,14.00
2018-04-15T07:37:08.019Z,13.90
2018-04-15T07:39:44.017Z,13.90
2018-04-15T07:42:12.443Z,14.00
2018-04-15T07:44:40.856Z,14.00
2018-04-15T07:47:09.231Z,13.90
2018-04-15T07:49:37.548Z,14.00
2018-04-15T07:52:05.929Z,14.10
2018-04-15T07:54:35.012Z,14.40
2018-04-15T07:57:03.417Z,14.30
2018-04-15T07:59:32.532Z,14.60
2018-04-15T08:02:00.901Z,14.60
2018-04-15T08:04:29.255Z,14.70
2018-04-15T08:06:57.635Z,14.90
2018-04-15T08:09:26.016Z,14.90
2018-04-15T08:11:55.455Z,15.20
2018-04-15T08:14:23.778Z,15.20
2018-04-15T08:16:52.144Z,15.30
2018-04-15T08:19:20.478Z,15.30
2018-04-15T08:21:48.846Z,15.30
2018-04-15T08:24:18.016Z,15.40
2018-04-15T08:26:46.404Z,15.40
2018-04-15T08:29:14.782Z,15.50
2018-04-15T08:31:43.135Z,15.50
2018-04-15T08:34:11.533Z,15.60
2018-04-15T08:36:40.109Z,15.60
2018-04-15T08:39:08.477Z,15.60
2018-04-15T08:41:36.840Z,15.60
2018-04-15T08:44:05.228Z,15.70
2018-04-15T08:46:33.638Z,15.70
2018-04-15T08:49:02.046Z,16.00
2018-04-15T08:51:31.188Z,16.50
2018-04-15T08:53:59.553Z,16.50
2018-04-15T08:56:27.924Z,16.40
2018-04-15T08:58:57.017Z,16.30
2018-04-15T09:01:25.419Z,16.30
2018-04-15T09:03:53.815Z,16.30
2018-04-15T09:06:23.668Z,16.20
2018-04-15T09:08:53.373Z,16.20
2018-04-15T09:11:22.529Z,15.90
2018-04-15T09:13:50.868Z,15.90
2018-04-15T09:16:19.157Z,15.70
2018-04-15T09:18:47.461Z,15.60
2018-04-15T09:21:15.752Z,15.60
2018-04-15T09:23:44.054Z,15.60
2018-04-15T09:26:14.122Z,15.70
2018-04-15T09:28:42.560Z,15.70
2018-04-15T09:31:12.541Z,16.00
2018-04-15T09:33:40.860Z,16.00
2018-04-15T09:36:09.156Z,16.10
2018-04-15T09:38:37.466Z,16.30
2018-04-15T09:41:05.764Z,16.40
2018-04-15T09:43:34.084Z,16.50
2018-04-15T09:46:02.412Z,16.60
2018-04-15T09:48:31.525Z,16.70
2018-04-15T09:50:59.810Z,16.70
2018-04-15T09:53:28.883Z,16.80
2018-04-15T09:55:57.163Z,16.80
2018-04-15T09:58:25.491Z,16.70
2018-04-15T10:00:59.316Z,16.80
2018-04-15T10:03:27.635Z,16.70
2018-04-15T10:05:55.937Z,16.80
2018-04-15T10:08:24.280Z,16.70
2018-04-15T10:10:52.623Z,16.90
2018-04-15T10:13:21.660Z,17.20
2018-04-15T10:15:49.945Z,17.20
2018-04-15T10:18:18.259Z,17.30
2018-04-15T10:20:46.560Z,17.50
2018-04-15T10:23:14.890Z,17.40
2018-04-15T10:25:43.940Z,17.60
2018-04-15T10:28:12.228Z,17.60
2018-04-15T10:30:40.557Z,17.50
2018-04-15T10:33:08.836Z,17.50
2018-04-15T10:35:37.174Z,17.60
2018-04-15T10:38:05.498Z,17.70
2018-04-15T10:40:33.858Z,17.90
2018-04-15T10:43:02.226Z,18.00
2018-04-15T10:45:30.672Z,18.10
2018-04-15T10:47:59.076Z,18.30
2018-04-15T10:50:27.472Z,18.40
2018-04-15T10:52:56.590Z,18.40
2018-04-15T10:55:25.018Z,18.40
2018-04-15T10:57:53.357Z,18.30
2018-04-15T11:00:21.705Z,18.40
2018-04-15T11:02:50.798Z,18.70
2018-04-15T11:05:19.919Z,18.90
2018-04-15T11:07:49.033Z,18.90
2018-04-15T11:10:17.505Z,18.90
2018-04-15T11:12:45.842Z,18.80
2018-04-15T11:15:15.017Z,19.00
2018-04-15T11:17:43.417Z,19.00
2018-04-15T11:20:12.580Z,18.80
2018-04-15T11:22:40.973Z,18.80
2018-04-15T11:25:09.364Z,18.80
2018-04-15T11:27:37.723Z,18.90
2018-04-15T11:30:06.106Z,18.80
2018-04-15T11:32:34.512Z,18.60
2018-04-15T11:35:02.820Z,18.60
2018-04-15T11:37:31.157Z,18.60
2018-04-15T11:39:59.521Z,18.60
2018-04-15T11:42:27.902Z,18.80
2018-04-15T11:44:56.242Z,18.90
2018-04-15T11:47:24.643Z,19.00
2018-04-15T11:49:53.003Z,19.00
2018-04-15T11:52:21.464Z,19.10
2018-04-15T11:54:49.851Z,19.10
2018-04-15T11:57:18.269Z,19.10
2018-04-15T11:59:46.648Z,19.00
2018-04-15T12:02:15.100Z,19.10
2018-04-15T12:04:43.579Z,19.30
2018-04-15T12:07:12.007Z,19.40
2018-04-15T12:09:40.361Z,19.40
2018-04-15T12:12:08.732Z,19.40
2018-04-15T12:14:37.084Z,19.40
2018-04-15T12:17:06.421Z,19.30
2018-04-15T12:19:34.767Z,19.40
2018-04-15T12:22:03.195Z,19.50
2018-04-15T12:24:31.573Z,19.60
2018-04-15T12:26:59.920Z,19.40
2018-04-15T12:29:28.390Z,19.50
2018-04-15T12:31:58.609Z,19.60
2018-04-15T12:34:26.945Z,19.70
2018-04-15T12:36:55.333Z,19.70
2018-04-15T12:39:23.688Z,19.80
2018-04-15T12:41:52.113Z,19.90
2018-04-15T12:44:21.192Z,20.30
2018-04-15T12:46:50.318Z,20.50
2018-04-15T12:49:18.726Z,20.40
2018-04-15T12:51:47.177Z,20.40
2018-04-15T12:54:15.632Z,20.20
2018-04-15T12:56:44.895Z,20.20
2018-04-15T12:59:13.914Z,20.20
2018-04-15T13:01:43.694Z,20.10
2018-04-15T13:04:12.074Z,20.30
2018-04-15T13:06:40.528Z,20.50
2018-04-15T13:09:08.923Z,20.60
2018-04-15T13:11:38.191Z,20.60
2018-04-15T13:14:07.325Z,20.40
2018-04-15T13:16:35.750Z,20.40
2018-04-15T13:19:04.842Z,20.40
2018-04-15T13:21:33.126Z,20.40
2018-04-15T13:24:02.203Z,20.40
2018-04-15T13:26:30.485Z,20.40
2018-04-15T13:28:58.791Z,20.40
2018-04-15T13:31:27.104Z,20.40
2018-04-15T13:33:56.196Z,20.80
2018-04-15T13:36:24.467Z,20.80
2018-04-15T13:38:52.780Z,20.90
2018-04-15T13:41:21.064Z,20.90
2018-04-15T13:43:49.377Z,21.00
2018-04-15T13:46:17.674Z,21.20
2018-04-15T13:48:45.993Z,21.30
2018-04-15T13:51:14.269Z,21.50
2018-04-15T13:53:42.583Z,21.50
2018-04-15T13:56:10.880Z,21.60
2018-04-15T13:58:39.208Z,21.60
2018-04-15T14:01:07.494Z,21.70
2018-04-15T14:03:35.798Z,21.90
2018-04-15T14:06:04.082Z,22.00
2018-04-15T14:08:32.404Z,22.00
2018-04-15T14:11:00.684Z,22.20
2018-04-15T14:13:29.025Z,22.30
2018-04-15T14:15:57.308Z,22.40
2018-04-15T14:18:25.633Z,22.40
2018-04-15T14:20:53.929Z,22.40
2018-04-15T14:23:22.976Z,22.40
2018-04-15T14:25:51.280Z,22.40
2018-04-15T14:28:19.564Z,22.30
2018-04-15T14:30:48.507Z,22.10
2018-04-15T14:33:16.814Z,22.00
2018-04-15T14:35:45.120Z,22.10
2018-04-15T14:38:14.163Z,22.10
2018-04-15T14:40:42.514Z,22.00
2018-04-15T14:43:11.545Z,22.10
2018-04-15T14:45:39.861Z,22.00
2018-04-15T14:48:08.930Z,22.00
2018-04-15T14:50:37.316Z,22.00
2018-04-15T14:53:07.284Z,22.00
2018-04-15T14:55:35.606Z,22.00
2018-04-15T14:58:03.883Z,22.10
2018-04-15T15:00:32.200Z,22.00
2018-04-15T15:03:00.488Z,21.90
2018-04-15T15:05:28.802Z,21.90
2018-04-15T15:07:57.078Z,21.80
2018-04-15T15:10:25.401Z,21.70
2018-04-15T15:12:53.735Z,21.60
2018-04-15T15:15:22.078Z,21.50
2018-04-15T15:17:50.450Z,21.50
2018-04-15T15:20:18.816Z,21.50
2018-04-15T15:22:47.946Z,21.40
2018-04-15T15:25:16.333Z,21.40
2018-04-15T15:27:44.663Z,21.30
2018-04-15T15:30:13.037Z,21.20
2018-04-15T15:32:42.088Z,21.20
2018-04-15T15:35:10.392Z,21.20
2018-04-15T15:37:38.680Z,21.20
2018-04-15T15:40:06.980Z,21.20
2018-04-15T15:42:36.047Z,21.10
2018-04-15T15:45:04.376Z,21.10
2018-04-15T15:47:32.665Z,21.00
2018-04-15T15:50:00.953Z,21.00
2018-04-15T15:52:29.259Z,21.00
2018-04-15T15:54:57.556Z,21.00
2018-04-15T15:57:26.641Z,21.20
2018-04-15T15:59:55.684Z,21.40
2018-04-15T16:02:24.018Z,21.30
2018-04-15T16:04:53.079Z,21.70
2018-04-15T16:07:21.393Z,21.70
2018-04-15T16:09:50.482Z,22.00
2018-04-15T16:12:19.620Z,22.20
2018-04-15T16:14:47.957Z,22.20
2018-04-15T16:17:17.038Z,22.30
2018-04-15T16:19:45.347Z,22.30
2018-04-15T16:22:14.412Z,22.10
2018-04-15T16:24:42.703Z,22.10
2018-04-15T16:27:11.020Z,22.00
2018-04-15T16:29:39.300Z,22.00
2018-04-15T16:32:07.614Z,22.00
2018-04-15T16:34:35.931Z,22.00
2018-04-15T16:37:05.012Z,21.80
2018-04-15T16:39:33.292Z,21.80
2018-04-15T16:42:02.378Z,21.60
2018-04-15T16:44:31.444Z,21.60
2018-04-15T16:46:59.753Z,21.60
2018-04-15T16:49:28.028Z,21.50
2018-04-15T16:51:56.336Z,21.40
2018-04-15T16:54:24.627Z,21.20
2018-04-15T16:56:52.954Z,21.10
2018-04-15T16:59:21.236Z,21.00
2018-04-15T17:01:49.545Z,20.80
2018-04-15T17:04:17.833Z,20.60
2018-04-15T17:06:46.148Z,20.50
2018-04-15T17:09:14.424Z,20.40
2018-04-15T17:11:42.748Z,20.30
2018-04-15T17:14:11.044Z,20.30
2018-04-15T17:16:40.124Z,20.00
2018-04-15T17:19:08.496Z,20.00
2018-04-15T17:21:36.825Z,19.90
2018-04-15T17:24:05.229Z,19.80
2018-04-15T17:26:34.861Z,19.50
2018-04-15T17:29:03.192Z,19.50
2018-04-15T17:31:31.481Z,19.40
2018-04-15T17:33:59.788Z,19.30
2018-04-15T17:36:28.842Z,19.20
2018-04-15T17:38:57.161Z,19.20
2018-04-15T17:41:26.214Z,19.00
2018-04-15T17:43:54.521Z,18.90
2018-04-15T17:46:23.572Z,18.60
2018-04-15T17:48:51.890Z,18.60
2018-04-15T17:51:20.182Z,18.50
2018-04-15T17:53:48.509Z,18.30
2018-04-15T17:56:16.793Z,18.30
2018-04-15T17:58:45.110Z,18.20
2018-04-15T18:01:13.402Z,18.20
2018-04-15T18:03:41.726Z,18.10
2018-04-15T18:06:10.025Z,18.00
2018-04-15T18:08:38.329Z,17.90
2018-04-15T18:11:06.629Z,17.80
2018-04-15T18:13:34.951Z,17.70
2018-04-15T18:16:03.249Z,17.60
2018-04-15T18:18:31.669Z,17.60
2018-04-15T18:20:59.946Z,17.30
2018-04-15T18:23:28.277Z,17.20
2018-04-15T18:25:57.329Z,17.10
2018-04-15T18:28:25.644Z,17.10
2018-04-15T18:30:53.932Z,17.00
2018-04-15T18:33:22.974Z,16.60
2018-04-15T18:35:51.286Z,16.60
2018-04-15T18:38:19.586Z,16.50
2018-04-15T18:40:48.649Z,16.40
2018-04-15T18:43:16.929Z,16.30
2018-04-15T18:45:45.237Z,16.30
2018-04-15T18:48:14.289Z,16.20
2018-04-15T18:50:42.600Z,16.20
2018-04-15T18:53:10.876Z,16.00
2018-04-15T18:55:39.193Z,15.80
2018-04-15T18:58:07.472Z,15.50
2018-04-15T19:00:35.781Z,15.50
2018-04-15T19:03:04.141Z,15.50
2018-04-15T19:05:32.533Z,15.40
2018-04-15T19:08:00.882Z,15.30
2018-04-15T19:10:29.283Z,15.20
2018-04-15T19:12:57.565Z,15.10
2018-04-15T19:15:25.883Z,15.10
2018-04-15T19:17:54.936Z,15.10
2018-04-15T19:20:23.249Z,15.20
2018-04-15T19:22:51.541Z,15.20
2018-04-15T19:25:20.609Z,15.30
2018-04-15T19:27:48.894Z,15.20
2018-04-15T19:30:17.220Z,15.20
2018-04-15T19:32:45.513Z,15.20
2018-04-15T19:35:13.812Z,15.10
2018-04-15T19:37:42.093Z,15.10
2018-04-15T19:40:10.425Z,15.00
2018-04-15T19:42:38.708Z,14.90
2018-04-15T19:45:07.038Z,14.90
2018-04-15T19:47:35.321Z,14.90
2018-04-15T19:50:04.393Z,14.90
2018-04-15T19:52:32.744Z,14.90
2018-04-15T19:55:01.173Z,14.90
2018-04-15T19:57:30.221Z,14.90
2018-04-15T19:59:58.525Z,14.90
2018-04-15T20:02:26.831Z,14.90
2018-04-15T20:04:55.913Z,14.70
2018-04-15T20:07:24.217Z,14.70
2018-04-15T20:09:52.500Z,14.60
2018-04-15T20:12:20.849Z,14.60
2018-04-15T20:14:49.292Z,14.40
2018-04-15T20:17:17.656Z,14.30
2018-04-15T20:19:45.955Z,14.40
2018-04-15T20:22:14.264Z,14.40
2018-04-15T20:24:42.558Z,14.40
2018-04-15T20:27:10.864Z,14.40
2018-04-15T20:29:39.140Z,14.30
2018-04-15T20:32:07.453Z,14.20
2018-04-15T20:34:35.744Z,14.10
2018-04-15T20:37:04.055Z,14.20
2018-04-15T20:39:32.339Z,14.20
2018-04-15T20:42:00.652Z,14.10
2018-04-15T20:44:28.933Z,14.00
2018-04-15T20:46:57.284Z,14.10
2018-04-15T20:49:25.607Z,14.10
2018-04-15T20:51:53.961Z,13.90
2018-04-15T20:54:22.350Z,13.80
2018-04-15T20:56:50.660Z,13.90
2018-04-15T20:59:19.710Z,13.90
2018-04-15T21:01:48.044Z,13.80
2018-04-15T21:04:16.330Z,13.90
2018-04-15T21:06:44.642Z,13.90
2018-04-15T21:09:13.714Z,13.90
2018-04-15T21:11:42.038Z,13.90
2018-04-15T21:14:10.316Z,13.90
2018-04-15T21:16:38.633Z,13.90
2018-04-15T21:19:06.932Z,14.00
2018-04-15T21:21:35.213Z,14.00
2018-04-15T21:24:03.536Z,13.90
2018-04-15T21:26:31.835Z,13.80
2018-04-15T21:29:00.905Z,13.50
2018-04-15T21:31:29.197Z,13.50
2018-04-15T21:33:57.509Z,13.60
2018-04-15T21:36:25.795Z,13.60
2018-04-15T21:38:54.108Z,13.70
2018-04-15T21:41:22.405Z,13.60
2018-04-15T21:43:51.478Z,13.40
2018-04-15T21:46:19.768Z,13.40
2018-04-15T21:48:48.092Z,13.30
2018-04-15T21:51:16.391Z,13.40
2018-04-15T21:53:44.695Z,13.40
2018-04-15T21:56:12.980Z,13.40
2018-04-15T21:58:42.055Z,13.50
2018-04-15T22:01:11.748Z,13.40
2018-04-15T22:03:40.156Z,13.40
2018-04-15T22:06:08.485Z,13.20
2018-04-15T22:08:36.796Z,13.10
2018-04-15T22:11:05.081Z,13.20
2018-04-15T22:13:33.401Z,13.20
2018-04-15T22:16:01.691Z,13.00
2018-04-15T22:18:30.031Z,12.90
2018-04-15T22:20:58.332Z,12.90
2018-04-15T22:23:26.644Z,13.00
2018-04-15T22:25:55.706Z,13.00
2018-04-15T22:28:24.021Z,13.00
2018-04-15T22:30:52.308Z,13.00
2018-04-15T22:33:20.623Z,13.00
2018-04-15T22:35:49.664Z,13.00
2018-04-15T22:38:17.966Z,13.00
2018-04-15T22:40:46.292Z,13.00
2018-04-15T22:43:14.580Z,13.00
2018-04-15T22:45:42.916Z,13.00
2018-04-15T22:48:11.193Z,12.90
2018-04-15T22:50:41.029Z,12.90
2018-04-15T22:53:09.335Z,12.90
2018-04-15T22:55:37.708Z,12.80
2018-04-15T22:58:06.040Z,12.70
2018-04-15T23:00:35.169Z,12.40
2018-04-15T23:03:03.480Z,12.40
2018-04-15T23:05:31.856Z,12.40
2018-04-15T23:08:00.237Z,12.50
2018-04-15T23:10:28.597Z,12.40
2018-04-15T23:12:56.946Z,12.40
2018-04-15T23:15:25.268Z,12.50
2018-04-15T23:17:53.558Z,12.40
2018-04-15T23:20:21.885Z,12.20
2018-04-15T23:22:50.176Z,12.00
2018-04-15T23:25:18.497Z,12.00
2018-04-15T23:27:46.780Z,12.10
2018-04-15T23:30:15.122Z,12.10
2018-04-15T23:32:43.433Z,12.10
2018-04-15T23:35:11.809Z,12.10
2018-04-15T23:37:40.166Z,12.10
2018-04-15T23:40:08.545Z,12.10
2018-04-15T23:42:36.872Z,12.10
2018-04-15T23:45:05.229Z,11.90
2018-04-15T23:47:33.572Z,11.80
2018-04-15T23:50:01.992Z,11.70
2018-04-15T23:52:31.137Z,11.30
2018-04-15T23:54:59.491Z,11.30
2018-04-15T23:57:28.608Z,11.50
2018-04-15T23:59:57.018Z,11.40
